sensor_id;sensor_type;location;lat;lon;timestamp;P1;durP1;ratioP1;P2;durP2;ratioP2
16600;SDS011;34891;48.164;11.572;2023-12-20T00:03:00;3.90;;;1.70;;
16600;SDS011;34891;48.164;11.572;2023-12-20T00:08:06;4.63;;;1.90;;
16600;SDS011;34891;48.164;11.572;2023-12-20T00:13:13;2.67;;;1.65;;
16600;SDS011;34891;48.164;11.572;2023-12-20T00:18:19;3.05;;;1.27;;
16600;SDS011;34891;48.164;11.572;2023-12-20T00:23:30;2.50;;;1.27;;
16600;SDS011;34891;48.164;11.572;2023-12-20T00:28:37;2.90;;;1.00;;
16600;SDS011;34891;48.164;11.572;2023-12-20T00:33:42;2.47;;;1.40;;
16600;SDS011;34891;48.164;11.572;2023-12-20T00:38:56;2.83;;;1.30;;
16600;SDS011;34891;48.164;11.572;2023-12-20T00:44:09;1.67;;;1.13;;
16600;SDS011;34891;48.164;11.572;2023-12-20T00:49:13;2.50;;;1.60;;
16600;SDS011;34891;48.164;11.572;2023-12-20T00:54:17;2.67;;;1.20;;
16600;SDS011;34891;48.164;11.572;2023-12-20T00:59:33;1.40;;;1.10;;
16600;SDS011;34891;48.164;11.572;2023-12-20T01:04:40;3.22;;;1.23;;
16600;SDS011;34891;48.164;11.572;2023-12-20T01:09:58;0.68;;;0.38;;
16600;SDS011;34891;48.164;11.572;2023-12-20T01:15:12;2.25;;;1.25;;
16600;SDS011;34891;48.164;11.572;2023-12-20T01:20:17;2.47;;;1.38;;
16600;SDS011;34891;48.164;11.572;2023-12-20T01:25:31;2.38;;;1.45;;
16600;SDS011;34891;48.164;11.572;2023-12-20T01:30:40;2.42;;;1.00;;
16600;SDS011;34891;48.164;11.572;2023-12-20T01:35:50;1.20;;;0.90;;
16600;SDS011;34891;48.164;11.572;2023-12-20T01:40:54;2.95;;;1.42;;
16600;SDS011;34891;48.164;11.572;2023-12-20T01:46:05;2.63;;;1.00;;
16600;SDS011;34891;48.164;11.572;2023-12-20T01:51:29;4.07;;;0.90;;
16600;SDS011;34891;48.164;11.572;2023-12-20T01:56:34;1.30;;;0.50;;
16600;SDS011;34891;48.164;11.572;2023-12-20T02:01:43;1.88;;;0.88;;
16600;SDS011;34891;48.164;11.572;2023-12-20T02:06:52;2.15;;;1.10;;
16600;SDS011;34891;48.164;11.572;2023-12-20T02:12:01;1.13;;;0.68;;
16600;SDS011;34891;48.164;11.572;2023-12-20T02:17:14;3.53;;;0.82;;
16600;SDS011;34891;48.164;11.572;2023-12-20T02:22:24;1.40;;;0.90;;
16600;SDS011;34891;48.164;11.572;2023-12-20T02:27:32;0.52;;;0.43;;
16600;SDS011;34891;48.164;11.572;2023-12-20T02:32:38;2.25;;;1.00;;
16600;SDS011;34891;48.164;11.572;2023-12-20T02:37:55;1.08;;;0.65;;
16600;SDS011;34891;48.164;11.572;2023-12-20T02:48:13;1.13;;;0.70;;
16600;SDS011;34891;48.164;11.572;2023-12-20T02:53:19;0.60;;;0.50;;
16600;SDS011;34891;48.164;11.572;2023-12-20T02:58:32;0.80;;;0.50;;
16600;SDS011;34891;48.164;11.572;2023-12-20T03:04:05;1.33;;;0.60;;
16600;SDS011;34891;48.164;11.572;2023-12-20T03:09:25;0.63;;;0.50;;
16600;SDS011;34891;48.164;11.572;2023-12-20T03:14:33;0.28;;;0.28;;
16600;SDS011;34891;48.164;11.572;2023-12-20T03:19:43;3.28;;;0.63;;
16600;SDS011;34891;48.164;11.572;2023-12-20T03:24:47;1.08;;;0.60;;
16600;SDS011;34891;48.164;11.572;2023-12-20T03:29:55;0.25;;;0.25;;
16600;SDS011;34891;48.164;11.572;2023-12-20T03:35:08;0.90;;;0.50;;
16600;SDS011;34891;48.164;11.572;2023-12-20T03:40:15;0.40;;;0.40;;
16600;SDS011;34891;48.164;11.572;2023-12-20T03:45:18;1.25;;;0.70;;
16600;SDS011;34891;48.164;11.572;2023-12-20T03:50:28;2.50;;;0.75;;
16600;SDS011;34891;48.164;11.572;2023-12-20T03:55:36;1.40;;;0.73;;
16600;SDS011;34891;48.164;11.572;2023-12-20T04:00:41;1.65;;;0.80;;
16600;SDS011;34891;48.164;11.572;2023-12-20T04:05:46;0.55;;;0.40;;
16600;SDS011;34891;48.164;11.572;2023-12-20T04:10:56;0.63;;;0.43;;
16600;SDS011;34891;48.164;11.572;2023-12-20T04:16:01;1.15;;;0.82;;
16600;SDS011;34891;48.164;11.572;2023-12-20T04:21:06;0.95;;;0.63;;
16600;SDS011;34891;48.164;11.572;2023-12-20T04:26:19;1.27;;;0.75;;
16600;SDS011;34891;48.164;11.572;2023-12-20T04:31:22;0.88;;;0.43;;
16600;SDS011;34891;48.164;11.572;2023-12-20T04:36:27;0.80;;;0.63;;
16600;SDS011;34891;48.164;11.572;2023-12-20T04:41:34;2.45;;;0.65;;
16600;SDS011;34891;48.164;11.572;2023-12-20T04:46:43;1.27;;;0.90;;
16600;SDS011;34891;48.164;11.572;2023-12-20T04:51:50;0.95;;;0.73;;
16600;SDS011;34891;48.164;11.572;2023-12-20T05:02:23;1.35;;;0.98;;
16600;SDS011;34891;48.164;11.572;2023-12-20T05:07:26;3.30;;;1.65;;
16600;SDS011;34891;48.164;11.572;2023-12-20T05:12:31;2.97;;;1.70;;
16600;SDS011;34891;48.164;11.572;2023-12-20T05:17:38;1.63;;;1.20;;
16600;SDS011;34891;48.164;11.572;2023-12-20T05:22:47;2.80;;;1.70;;
16600;SDS011;34891;48.164;11.572;2023-12-20T05:27:50;5.38;;;2.10;;
16600;SDS011;34891;48.164;11.572;2023-12-20T05:33:07;3.38;;;1.73;;
16600;SDS011;34891;48.164;11.572;2023-12-20T05:38:11;3.88;;;1.90;;
16600;SDS011;34891;48.164;11.572;2023-12-20T05:43:16;2.67;;;1.30;;
16600;SDS011;34891;48.164;11.572;2023-12-20T05:48:29;4.28;;;1.88;;
16600;SDS011;34891;48.164;11.572;2023-12-20T05:53:34;2.90;;;1.67;;
16600;SDS011;34891;48.164;11.572;2023-12-20T05:58:38;1.73;;;1.10;;
16600;SDS011;34891;48.164;11.572;2023-12-20T06:09:00;2.05;;;1.10;;
16600;SDS011;34891;48.164;11.572;2023-12-20T06:14:13;1.67;;;1.13;;
16600;SDS011;34891;48.164;11.572;2023-12-20T06:19:18;3.13;;;1.63;;
16600;SDS011;34891;48.164;11.572;2023-12-20T06:24:26;3.08;;;1.17;;
16600;SDS011;34891;48.164;11.572;2023-12-20T06:29:36;2.67;;;1.63;;
16600;SDS011;34891;48.164;11.572;2023-12-20T06:34:41;2.58;;;1.60;;
16600;SDS011;34891;48.164;11.572;2023-12-20T06:39:49;2.67;;;1.35;;
16600;SDS011;34891;48.164;11.572;2023-12-20T06:44:55;2.25;;;1.48;;
16600;SDS011;34891;48.164;11.572;2023-12-20T06:50:00;1.35;;;1.20;;
16600;SDS011;34891;48.164;11.572;2023-12-20T06:55:11;2.45;;;1.52;;
16600;SDS011;34891;48.164;11.572;2023-12-20T07:00:17;2.35;;;1.30;;
16600;SDS011;34891;48.164;11.572;2023-12-20T07:05:36;2.33;;;1.33;;
16600;SDS011;34891;48.164;11.572;2023-12-20T07:10:43;2.08;;;1.20;;
16600;SDS011;34891;48.164;11.572;2023-12-20T07:15:48;2.55;;;1.38;;
16600;SDS011;34891;48.164;11.572;2023-12-20T07:20:54;3.20;;;1.23;;
16600;SDS011;34891;48.164;11.572;2023-12-20T07:26:03;1.55;;;0.75;;
16600;SDS011;34891;48.164;11.572;2023-12-20T07:31:07;0.98;;;0.73;;
16600;SDS011;34891;48.164;11.572;2023-12-20T07:36:13;3.72;;;0.88;;
16600;SDS011;34891;48.164;11.572;2023-12-20T07:41:20;2.25;;;0.85;;
16600;SDS011;34891;48.164;11.572;2023-12-20T07:46:25;2.92;;;1.10;;
16600;SDS011;34891;48.164;11.572;2023-12-20T07:51:33;0.85;;;0.50;;
16600;SDS011;34891;48.164;11.572;2023-12-20T07:56:38;2.05;;;0.70;;
16600;SDS011;34891;48.164;11.572;2023-12-20T08:01:48;1.77;;;0.55;;
16600;SDS011;34891;48.164;11.572;2023-12-20T08:06:54;2.90;;;1.02;;
16600;SDS011;34891;48.164;11.572;2023-12-20T08:12:06;2.05;;;0.80;;
16600;SDS011;34891;48.164;11.572;2023-12-20T08:17:09;2.22;;;0.77;;
16600;SDS011;34891;48.164;11.572;2023-12-20T08:22:14;1.45;;;0.70;;
16600;SDS011;34891;48.164;11.572;2023-12-20T08:27:19;1.20;;;0.55;;
16600;SDS011;34891;48.164;11.572;2023-12-20T08:32:24;1.40;;;0.80;;
16600;SDS011;34891;48.164;11.572;2023-12-20T08:37:31;1.15;;;0.75;;
16600;SDS011;34891;48.164;11.572;2023-12-20T08:42:36;1.55;;;0.68;;
16600;SDS011;34891;48.164;11.572;2023-12-20T08:47:41;0.93;;;0.70;;
16600;SDS011;34891;48.164;11.572;2023-12-20T08:52:55;1.08;;;0.63;;
16600;SDS011;34891;48.164;11.572;2023-12-20T08:58:04;0.70;;;0.60;;
16600;SDS011;34891;48.164;11.572;2023-12-20T09:03:12;0.35;;;0.25;;
16600;SDS011;34891;48.164;11.572;2023-12-20T09:08:19;2.55;;;0.68;;
16600;SDS011;34891;48.164;11.572;2023-12-20T09:13:26;1.85;;;0.95;;
16600;SDS011;34891;48.164;11.572;2023-12-20T09:18:30;1.95;;;0.68;;
16600;SDS011;34891;48.164;11.572;2023-12-20T09:23:34;1.13;;;0.70;;
16600;SDS011;34891;48.164;11.572;2023-12-20T09:28:41;1.30;;;0.60;;
16600;SDS011;34891;48.164;11.572;2023-12-20T09:33:47;1.17;;;0.50;;
16600;SDS011;34891;48.164;11.572;2023-12-20T09:38:52;1.00;;;0.70;;
16600;SDS011;34891;48.164;11.572;2023-12-20T09:43:59;1.65;;;0.88;;
16600;SDS011;34891;48.164;11.572;2023-12-20T09:49:05;2.30;;;0.70;;
16600;SDS011;34891;48.164;11.572;2023-12-20T09:54:10;0.80;;;0.60;;
16600;SDS011;34891;48.164;11.572;2023-12-20T09:59:19;0.77;;;0.77;;
16600;SDS011;34891;48.164;11.572;2023-12-20T10:04:23;0.70;;;0.70;;
16600;SDS011;34891;48.164;11.572;2023-12-20T10:09:32;1.33;;;0.70;;
16600;SDS011;34891;48.164;11.572;2023-12-20T10:14:40;1.05;;;0.88;;
16600;SDS011;34891;48.164;11.572;2023-12-20T10:19:44;1.63;;;1.02;;
16600;SDS011;34891;48.164;11.572;2023-12-20T10:24:52;1.67;;;1.00;;
16600;SDS011;34891;48.164;11.572;2023-12-20T10:29:59;1.52;;;0.70;;
16600;SDS011;34891;48.164;11.572;2023-12-20T10:35:05;0.90;;;0.77;;
16600;SDS011;34891;48.164;11.572;2023-12-20T10:45:13;0.82;;;0.73;;
16600;SDS011;34891;48.164;11.572;2023-12-20T10:50:19;0.80;;;0.70;;
16600;SDS011;34891;48.164;11.572;2023-12-20T10:55:24;0.30;;;0.30;;
16600;SDS011;34891;48.164;11.572;2023-12-20T11:00:35;1.23;;;0.95;;
16600;SDS011;34891;48.164;11.572;2023-12-20T11:05:44;1.17;;;0.85;;
16600;SDS011;34891;48.164;11.572;2023-12-20T11:10:55;1.88;;;1.00;;
16600;SDS011;34891;48.164;11.572;2023-12-20T11:16:04;1.80;;;1.02;;
16600;SDS011;34891;48.164;11.572;2023-12-20T11:21:11;2.00;;;0.80;;
16600;SDS011;34891;48.164;11.572;2023-12-20T11:26:22;1.65;;;1.10;;
16600;SDS011;34891;48.164;11.572;2023-12-20T11:31:27;2.38;;;1.30;;
16600;SDS011;34891;48.164;11.572;2023-12-20T11:36:32;1.30;;;0.90;;
16600;SDS011;34891;48.164;11.572;2023-12-20T11:41:39;1.83;;;1.20;;
16600;SDS011;34891;48.164;11.572;2023-12-20T11:51:52;1.48;;;0.90;;
16600;SDS011;34891;48.164;11.572;2023-12-20T11:56:58;2.08;;;1.23;;
16600;SDS011;34891;48.164;11.572;2023-12-20T12:02:05;1.73;;;1.10;;
16600;SDS011;34891;48.164;11.572;2023-12-20T12:07:11;1.92;;;1.13;;
16600;SDS011;34891;48.164;11.572;2023-12-20T12:12:14;2.45;;;0.90;;
16600;SDS011;34891;48.164;11.572;2023-12-20T12:17:23;2.00;;;1.00;;
16600;SDS011;34891;48.164;11.572;2023-12-20T12:27:35;2.13;;;1.15;;
16600;SDS011;34891;48.164;11.572;2023-12-20T12:32:40;1.40;;;0.85;;
16600;SDS011;34891;48.164;11.572;2023-12-20T12:37:45;1.40;;;0.80;;
16600;SDS011;34891;48.164;11.572;2023-12-20T12:42:54;0.98;;;0.70;;
16600;SDS011;34891;48.164;11.572;2023-12-20T12:48:00;2.00;;;1.02;;
16600;SDS011;34891;48.164;11.572;2023-12-20T12:53:23;1.25;;;0.80;;
16600;SDS011;34891;48.164;11.572;2023-12-20T12:58:31;5.80;;;1.20;;
16600;SDS011;34891;48.164;11.572;2023-12-20T13:03:34;3.38;;;1.30;;
16600;SDS011;34891;48.164;11.572;2023-12-20T13:08:39;3.30;;;1.80;;
16600;SDS011;34891;48.164;11.572;2023-12-20T13:13:54;1.55;;;1.30;;
16600;SDS011;34891;48.164;11.572;2023-12-20T13:19:11;2.03;;;0.90;;
16600;SDS011;34891;48.164;11.572;2023-12-20T13:24:23;4.40;;;2.05;;
16600;SDS011;34891;48.164;11.572;2023-12-20T13:29:31;1.48;;;0.90;;
16600;SDS011;34891;48.164;11.572;2023-12-20T13:34:41;3.72;;;1.33;;
16600;SDS011;34891;48.164;11.572;2023-12-20T13:39:48;3.35;;;2.00;;
16600;SDS011;34891;48.164;11.572;2023-12-20T13:50:13;2.70;;;1.35;;
16600;SDS011;34891;48.164;11.572;2023-12-20T13:55:23;4.50;;;1.55;;
16600;SDS011;34891;48.164;11.572;2023-12-20T14:00:32;5.40;;;2.05;;
16600;SDS011;34891;48.164;11.572;2023-12-20T14:05:43;3.03;;;1.50;;
16600;SDS011;34891;48.164;11.572;2023-12-20T14:10:47;2.67;;;1.48;;
16600;SDS011;34891;48.164;11.572;2023-12-20T14:16:06;3.55;;;1.33;;
16600;SDS011;34891;48.164;11.572;2023-12-20T14:21:17;2.80;;;1.67;;
16600;SDS011;34891;48.164;11.572;2023-12-20T14:26:22;2.83;;;1.58;;
16600;SDS011;34891;48.164;11.572;2023-12-20T14:31:26;4.15;;;1.10;;
16600;SDS011;34891;48.164;11.572;2023-12-20T14:36:35;1.80;;;1.30;;
16600;SDS011;34891;48.164;11.572;2023-12-20T14:41:41;4.15;;;1.52;;
16600;SDS011;34891;48.164;11.572;2023-12-20T14:46:53;5.07;;;1.42;;
16600;SDS011;34891;48.164;11.572;2023-12-20T14:52:05;3.80;;;1.55;;
16600;SDS011;34891;48.164;11.572;2023-12-20T14:57:13;3.83;;;1.95;;
16600;SDS011;34891;48.164;11.572;2023-12-20T15:02:16;3.90;;;1.33;;
16600;SDS011;34891;48.164;11.572;2023-12-20T15:07:34;4.78;;;1.30;;
16600;SDS011;34891;48.164;11.572;2023-12-20T15:12:43;4.32;;;1.50;;
16600;SDS011;34891;48.164;11.572;2023-12-20T15:17:48;4.57;;;1.55;;
16600;SDS011;34891;48.164;11.572;2023-12-20T15:22:54;3.65;;;1.40;;
16600;SDS011;34891;48.164;11.572;2023-12-20T15:28:06;2.65;;;1.08;;
16600;SDS011;34891;48.164;11.572;2023-12-20T15:33:11;1.38;;;1.00;;
16600;SDS011;34891;48.164;11.572;2023-12-20T15:38:20;2.08;;;1.27;;
16600;SDS011;34891;48.164;11.572;2023-12-20T15:43:45;4.07;;;1.60;;
16600;SDS011;34891;48.164;11.572;2023-12-20T15:48:50;1.25;;;0.90;;
16600;SDS011;34891;48.164;11.572;2023-12-20T15:53:59;3.25;;;1.40;;
16600;SDS011;34891;48.164;11.572;2023-12-20T15:59:10;1.90;;;1.05;;
16600;SDS011;34891;48.164;11.572;2023-12-20T16:04:20;1.95;;;1.02;;
16600;SDS011;34891;48.164;11.572;2023-12-20T16:09:28;2.42;;;1.17;;
16600;SDS011;34891;48.164;11.572;2023-12-20T16:14:32;2.90;;;1.35;;
16600;SDS011;34891;48.164;11.572;2023-12-20T16:19:52;1.70;;;1.23;;
16600;SDS011;34891;48.164;11.572;2023-12-20T16:24:59;3.22;;;1.20;;
16600;SDS011;34891;48.164;11.572;2023-12-20T16:35:21;2.17;;;1.30;;
16600;SDS011;34891;48.164;11.572;2023-12-20T16:40:34;2.88;;;1.20;;
16600;SDS011;34891;48.164;11.572;2023-12-20T16:45:44;4.20;;;1.48;;
16600;SDS011;34891;48.164;11.572;2023-12-20T16:50:51;1.90;;;0.95;;
16600;SDS011;34891;48.164;11.572;2023-12-20T17:01:01;1.60;;;1.25;;
16600;SDS011;34891;48.164;11.572;2023-12-20T17:06:08;2.90;;;1.20;;
16600;SDS011;34891;48.164;11.572;2023-12-20T17:11:12;1.65;;;1.13;;
16600;SDS011;34891;48.164;11.572;2023-12-20T17:16:25;1.98;;;1.00;;
16600;SDS011;34891;48.164;11.572;2023-12-20T17:21:32;2.17;;;1.27;;
16600;SDS011;34891;48.164;11.572;2023-12-20T17:26:35;3.38;;;1.70;;
16600;SDS011;34891;48.164;11.572;2023-12-20T17:31:40;5.83;;;1.30;;
16600;SDS011;34891;48.164;11.572;2023-12-20T17:36:46;2.00;;;1.20;;
16600;SDS011;34891;48.164;11.572;2023-12-20T17:41:56;2.25;;;1.23;;
16600;SDS011;34891;48.164;11.572;2023-12-20T17:47:05;2.63;;;1.00;;
16600;SDS011;34891;48.164;11.572;2023-12-20T17:52:11;2.95;;;1.00;;
16600;SDS011;34891;48.164;11.572;2023-12-20T17:57:18;1.77;;;1.08;;
16600;SDS011;34891;48.164;11.572;2023-12-20T18:02:30;3.00;;;1.00;;
16600;SDS011;34891;48.164;11.572;2023-12-20T18:07:34;1.10;;;0.70;;
16600;SDS011;34891;48.164;11.572;2023-12-20T18:12:40;2.28;;;1.02;;
16600;SDS011;34891;48.164;11.572;2023-12-20T18:17:50;3.20;;;0.80;;
16600;SDS011;34891;48.164;11.572;2023-12-20T18:22:57;2.30;;;1.05;;
16600;SDS011;34891;48.164;11.572;2023-12-20T18:28:04;2.78;;;0.93;;
16600;SDS011;34891;48.164;11.572;2023-12-20T18:33:10;3.55;;;0.57;;
16600;SDS011;34891;48.164;11.572;2023-12-20T18:38:14;2.70;;;0.93;;
16600;SDS011;34891;48.164;11.572;2023-12-20T18:43:19;5.75;;;1.27;;
16600;SDS011;34891;48.164;11.572;2023-12-20T18:48:27;3.20;;;1.35;;
16600;SDS011;34891;48.164;11.572;2023-12-20T18:53:36;2.38;;;1.00;;
16600;SDS011;34891;48.164;11.572;2023-12-20T18:58:43;1.17;;;0.60;;
16600;SDS011;34891;48.164;11.572;2023-12-20T19:03:50;2.85;;;1.05;;
16600;SDS011;34891;48.164;11.572;2023-12-20T19:08:55;3.47;;;1.10;;
16600;SDS011;34891;48.164;11.572;2023-12-20T19:13:59;5.00;;;1.30;;
16600;SDS011;34891;48.164;11.572;2023-12-20T19:19:04;5.80;;;1.10;;
16600;SDS011;34891;48.164;11.572;2023-12-20T19:24:13;1.42;;;0.60;;
16600;SDS011;34891;48.164;11.572;2023-12-20T19:29:24;2.22;;;0.80;;
16600;SDS011;34891;48.164;11.572;2023-12-20T19:34:34;1.25;;;0.60;;
16600;SDS011;34891;48.164;11.572;2023-12-20T19:39:39;3.25;;;1.00;;
16600;SDS011;34891;48.164;11.572;2023-12-20T19:44:50;2.10;;;0.90;;
16600;SDS011;34891;48.164;11.572;2023-12-20T19:50:01;2.15;;;1.33;;
16600;SDS011;34891;48.164;11.572;2023-12-20T19:55:08;2.45;;;1.38;;
16600;SDS011;34891;48.164;11.572;2023-12-20T20:00:14;2.80;;;1.70;;
16600;SDS011;34891;48.164;11.572;2023-12-20T20:05:21;3.08;;;1.00;;
16600;SDS011;34891;48.164;11.572;2023-12-20T20:10:30;3.03;;;0.80;;
16600;SDS011;34891;48.164;11.572;2023-12-20T20:15:36;2.40;;;1.23;;
16600;SDS011;34891;48.164;11.572;2023-12-20T20:20:40;1.67;;;0.83;;
16600;SDS011;34891;48.164;11.572;2023-12-20T20:25:44;0.75;;;0.57;;
16600;SDS011;34891;48.164;11.572;2023-12-20T20:30:52;3.63;;;1.10;;
16600;SDS011;34891;48.164;11.572;2023-12-20T20:36:00;1.58;;;1.02;;
16600;SDS011;34891;48.164;11.572;2023-12-20T20:41:13;2.65;;;1.20;;
16600;SDS011;34891;48.164;11.572;2023-12-20T20:46:20;1.83;;;1.15;;
16600;SDS011;34891;48.164;11.572;2023-12-20T20:51:38;2.92;;;1.58;;
16600;SDS011;34891;48.164;11.572;2023-12-20T20:56:44;1.38;;;0.85;;
16600;SDS011;34891;48.164;11.572;2023-12-20T21:01:48;1.58;;;0.80;;
16600;SDS011;34891;48.164;11.572;2023-12-20T21:07:04;2.45;;;1.15;;
16600;SDS011;34891;48.164;11.572;2023-12-20T21:12:28;5.07;;;1.25;;
16600;SDS011;34891;48.164;11.572;2023-12-20T21:17:35;2.88;;;0.65;;
16600;SDS011;34891;48.164;11.572;2023-12-20T21:22:52;3.70;;;1.13;;
16600;SDS011;34891;48.164;11.572;2023-12-20T21:27:55;1.60;;;1.10;;
16600;SDS011;34891;48.164;11.572;2023-12-20T21:33:09;4.18;;;1.10;;
16600;SDS011;34891;48.164;11.572;2023-12-20T21:38:18;4.15;;;1.48;;
16600;SDS011;34891;48.164;11.572;2023-12-20T21:43:22;4.43;;;1.30;;
16600;SDS011;34891;48.164;11.572;2023-12-20T21:48:34;3.53;;;1.20;;
16600;SDS011;34891;48.164;11.572;2023-12-20T21:53:41;1.88;;;0.98;;
16600;SDS011;34891;48.164;11.572;2023-12-20T21:59:02;2.00;;;1.00;;
16600;SDS011;34891;48.164;11.572;2023-12-20T22:04:13;3.13;;;0.70;;
16600;SDS011;34891;48.164;11.572;2023-12-20T22:09:19;2.47;;;0.97;;
16600;SDS011;34891;48.164;11.572;2023-12-20T22:14:31;1.48;;;0.70;;
16600;SDS011;34891;48.164;11.572;2023-12-20T22:19:39;1.48;;;0.80;;
16600;SDS011;34891;48.164;11.572;2023-12-20T22:25:03;1.75;;;0.60;;
16600;SDS011;34891;48.164;11.572;2023-12-20T22:30:07;2.35;;;0.70;;
16600;SDS011;34891;48.164;11.572;2023-12-20T22:35:16;1.98;;;0.90;;
16600;SDS011;34891;48.164;11.572;2023-12-20T22:40:23;1.33;;;0.68;;
16600;SDS011;34891;48.164;11.572;2023-12-20T22:45:34;2.88;;;0.70;;
16600;SDS011;34891;48.164;11.572;2023-12-20T22:50:39;1.48;;;0.70;;
16600;SDS011;34891;48.164;11.572;2023-12-20T22:55:46;0.95;;;0.65;;
16600;SDS011;34891;48.164;11.572;2023-12-20T23:00:53;0.82;;;0.45;;
16600;SDS011;34891;48.164;11.572;2023-12-20T23:06:09;2.38;;;0.85;;
16600;SDS011;34891;48.164;11.572;2023-12-20T23:11:17;1.23;;;0.75;;
16600;SDS011;34891;48.164;11.572;2023-12-20T23:16:20;1.75;;;0.70;;
16600;SDS011;34891;48.164;11.572;2023-12-20T23:21:23;1.30;;;0.50;;
16600;SDS011;34891;48.164;11.572;2023-12-20T23:26:31;1.38;;;0.52;;
16600;SDS011;34891;48.164;11.572;2023-12-20T23:31:39;2.05;;;0.50;;
16600;SDS011;34891;48.164;11.572;2023-12-20T23:36:47;1.95;;;0.80;;
16600;SDS011;34891;48.164;11.572;2023-12-20T23:41:57;0.85;;;0.50;;
16600;SDS011;34891;48.164;11.572;2023-12-20T23:47:06;1.95;;;0.60;;
16600;SDS011;34891;48.164;11.572;2023-12-20T23:52:26;2.15;;;0.40;;
16600;SDS011;34891;48.164;11.572;2023-12-20T23:57:32;1.80;;;0.30;;
